Time;durP1;ratioP1;P1;durP2;ratioP2;P2;SDS_P1;SDS_P2;PMS_P1;PMS_P2;Temp;Humidity;BMP_temperature;BMP_pressure;BME280_temperature;BME280_humidity;BME280_pressure;Samples;Min_cycle;Max_cycle;Signal;HPM_P1;HPM_P2
2021/07/13 00:01:03;;;;;;;9.50;6.65;;;15.40;99.90;;;;;;4974365;28;20086;-95
2021/07/13 00:03:29;;;;;;;8.38;6.10;;;15.30;99.90;;;;;;4971445;28;20107;-96
2021/07/13 00:05:56;;;;;;;11.80;6.93;;;15.30;99.90;;;;;;4975513;28;20102;-95
2021/07/13 00:08:22;;;;;;;12.60;7.72;;;15.30;99.90;;;;;;4976529;28;20027;-96
2021/07/13 00:10:48;;;;;;;11.10;8.15;;;15.30;99.90;;;;;;4974205;28;20037;-95
2021/07/13 00:13:14;;;;;;;11.27;7.47;;;15.20;99.90;;;;;;4976828;28;20034;-95
2021/07/13 00:15:42;;;;;;;11.45;8.07;;;15.20;99.90;;;;;;4974029;28;20085;-96
2021/07/13 00:18:09;;;;;;;10.73;7.88;;;15.20;99.90;;;;;;4976469;28;20097;-96
2021/07/13 00:20:35;;;;;;;11.57;8.18;;;15.20;99.90;;;;;;4978909;28;20034;-96
2021/07/13 00:23:01;;;;;;;12.32;8.80;;;15.20;99.90;;;;;;4978654;28;20047;-95
2021/07/13 00:25:28;;;;;;;10.27;7.72;;;15.20;99.90;;;;;;4971909;28;20111;-96
2021/07/13 00:27:55;;;;;;;10.15;8.15;;;15.20;99.90;;;;;;4979024;28;20027;-96
2021/07/13 00:30:23;;;;;;;10.95;7.20;;;15.20;99.90;;;;;;4979761;28;20030;-96
2021/07/13 00:32:50;;;;;;;10.27;7.18;;;15.20;99.90;;;;;;4977908;28;20034;-96
2021/07/13 00:35:19;;;;;;;11.60;8.27;;;15.20;99.90;;;;;;4979089;28;20011;-96
2021/07/13 00:37:47;;;;;;;12.90;8.15;;;15.30;99.90;;;;;;4980141;28;20015;-96
2021/07/13 00:40:16;;;;;;;13.68;7.60;;;15.30;99.90;;;;;;4979443;28;20042;-96
2021/07/13 00:42:47;;;;;;;15.00;8.15;;;15.20;99.90;;;;;;4977628;28;20045;-96
2021/07/13 00:45:13;;;;;;;14.63;9.82;;;15.30;99.90;;;;;;4975982;28;20026;-96
2021/07/13 00:47:39;;;;;;;12.25;8.52;;;15.30;99.90;;;;;;4976453;28;20041;-95
2021/07/13 00:50:05;;;;;;;13.75;8.43;;;15.30;99.90;;;;;;4979082;28;20037;-96
2021/07/13 00:52:34;;;;;;;14.88;9.15;;;15.30;99.90;;;;;;4978239;28;20072;-95
2021/07/13 00:55:03;;;;;;;15.00;9.07;;;15.30;99.90;;;;;;4976770;28;20023;-95
2021/07/13 00:57:29;;;;;;;13.18;8.18;;;15.30;99.90;;;;;;4976677;28;20079;-96
2021/07/13 00:59:54;;;;;;;15.00;9.60;;;15.30;99.90;;;;;;4980010;28;20034;-96
2021/07/13 01:02:20;;;;;;;14.65;9.57;;;15.30;99.90;;;;;;4975335;28;20039;-96
2021/07/13 01:04:53;;;;;;;14.38;8.90;;;15.30;99.90;;;;;;4978709;28;20104;-96
2021/07/13 01:07:43;;;;;;;12.00;8.55;;;15.20;99.90;;;;;;4972286;28;20492;-95
2021/07/13 01:10:30;;;;;;;14.48;8.85;;;15.30;99.90;;;;;;4975973;28;20022;-96
2021/07/13 01:13:03;;;;;;;13.45;7.50;;;15.20;99.90;;;;;;4973700;28;20057;-96
2021/07/13 01:15:36;;;;;;;9.48;6.72;;;15.20;99.90;;;;;;4974620;28;20117;-96
2021/07/13 01:18:09;;;;;;;11.65;7.95;;;15.20;99.90;;;;;;4970785;28;20540;-96
2021/07/13 01:21:03;;;;;;;13.43;7.82;;;15.20;99.90;;;;;;4964796;28;20054;-96
2021/07/13 01:23:50;;;;;;;10.18;6.68;;;15.20;99.90;;;;;;4942339;28;20051;-95
2021/07/13 01:26:39;;;;;;;11.45;7.63;;;15.20;99.90;;;;;;4967503;28;20030;-96
2021/07/13 01:29:10;;;;;;;11.25;6.25;;;15.20;99.90;;;;;;4968147;28;20042;-96
2021/07/13 01:31:39;;;;;;;7.80;6.05;;;15.20;99.90;;;;;;4969845;28;20018;-95
2021/07/13 01:34:12;;;;;;;10.70;7.15;;;15.10;99.90;;;;;;4969412;28;20035;-95
2021/07/13 01:36:47;;;;;;;11.73;7.28;;;15.20;99.90;;;;;;4966312;28;20027;-96
2021/07/13 01:39:18;;;;;;;8.40;6.65;;;15.20;99.90;;;;;;4965790;28;20026;-95
2021/07/13 01:41:47;;;;;;;11.50;7.43;;;15.20;99.90;;;;;;4969305;28;20030;-96
2021/07/13 01:44:18;;;;;;;9.70;7.93;;;15.20;99.90;;;;;;4967011;28;20114;-96
2021/07/13 01:46:45;;;;;;;7.75;5.50;;;15.20;99.90;;;;;;4967735;28;20051;-95
2021/07/13 01:49:13;;;;;;;8.70;6.20;;;15.20;99.90;;;;;;4969975;28;20034;-95
2021/07/13 01:51:39;;;;;;;10.27;5.90;;;15.20;99.90;;;;;;4974319;28;20030;-95
2021/07/13 01:54:08;;;;;;;10.05;6.35;;;15.20;99.90;;;;;;4977408;28;20031;-95
2021/07/13 01:56:37;;;;;;;8.88;6.28;;;15.20;99.90;;;;;;4971059;28;20037;-96
2021/07/13 01:59:06;;;;;;;13.52;6.97;;;15.20;99.90;;;;;;4964785;28;20034;-95
2021/07/13 02:01:33;;;;;;;9.27;6.00;;;15.20;99.90;;;;;;4963170;28;20094;-94
2021/07/13 02:04:02;;;;;;;9.25;6.07;;;15.20;99.90;;;;;;4963483;28;20055;-95
2021/07/13 02:06:28;;;;;;;9.50;6.43;;;15.20;99.90;;;;;;4962986;28;20061;-96
2021/07/13 02:08:58;;;;;;;9.02;5.10;;;15.20;99.90;;;;;;4969380;28;20034;-96
2021/07/13 02:11:26;;;;;;;7.95;5.10;;;15.20;99.90;;;;;;4973002;28;20043;-95
2021/07/13 02:13:52;;;;;;;6.25;4.85;;;15.20;99.90;;;;;;4967408;28;20031;-95
2021/07/13 02:16:19;;;;;;;6.78;4.90;;;15.20;99.90;;;;;;4966221;28;20101;-96
2021/07/13 02:18:46;;;;;;;7.53;5.00;;;15.20;99.90;;;;;;4966352;28;20041;-95
2021/07/13 02:21:14;;;;;;;7.45;4.30;;;15.20;99.90;;;;;;4967114;28;20019;-94
2021/07/13 02:23:43;;;;;;;6.35;4.30;;;15.20;99.90;;;;;;4968003;28;20034;-96
2021/07/13 02:26:12;;;;;;;6.15;4.13;;;15.20;99.90;;;;;;4967729;28;20508;-96
2021/07/13 02:28:43;;;;;;;7.30;4.25;;;15.20;99.90;;;;;;4963881;28;20018;-96
2021/07/13 02:31:22;;;;;;;6.03;4.68;;;15.20;99.90;;;;;;4963867;28;20033;-95
2021/07/13 02:33:54;;;;;;;6.38;4.57;;;15.20;99.90;;;;;;4971706;28;20043;-96
2021/07/13 02:36:29;;;;;;;8.35;4.97;;;15.10;99.90;;;;;;4969523;29;20070;-96
2021/07/13 02:38:58;;;;;;;7.70;4.70;;;15.20;99.90;;;;;;4964303;29;20032;-95
2021/07/13 02:41:24;;;;;;;8.70;5.00;;;15.10;99.90;;;;;;4965312;28;20027;-96
2021/07/13 02:43:52;;;;;;;6.88;4.75;;;15.20;99.90;;;;;;4967385;28;20131;-96
2021/07/13 02:46:20;;;;;;;6.65;4.80;;;15.10;99.90;;;;;;4963793;28;20038;-95
2021/07/13 02:48:46;;;;;;;7.30;4.78;;;15.10;99.90;;;;;;4961234;28;20044;-95
2021/07/13 02:51:13;;;;;;;7.53;5.18;;;15.10;99.90;;;;;;4961911;28;20057;-96
2021/07/13 02:53:42;;;;;;;6.47;5.10;;;15.10;99.90;;;;;;4961404;28;20099;-96
2021/07/13 02:56:09;;;;;;;7.47;5.35;;;15.20;99.90;;;;;;4961482;28;20030;-95
2021/07/13 02:58:37;;;;;;;7.82;5.50;;;15.20;99.90;;;;;;4960456;28;20134;-96
2021/07/13 03:01:08;;;;;;;10.57;5.80;;;15.20;99.90;;;;;;4960234;28;20046;-96
2021/07/13 03:09:45;;;;;;;6.50;5.60;;;15.20;99.90;;;;;;5241927;23;20081;-96
2021/07/13 03:12:12;;;;;;;7.28;4.30;;;15.20;99.90;;;;;;4981172;28;20065;-96
2021/07/13 03:14:45;;;;;;;8.60;4.38;;;15.20;99.90;;;;;;4981197;28;20053;-96
2021/07/13 03:17:14;;;;;;;6.03;4.53;;;15.20;99.90;;;;;;4981893;28;20046;-94
2021/07/13 03:19:40;;;;;;;6.97;4.60;;;15.20;99.90;;;;;;4981201;28;20026;-95
2021/07/13 03:22:17;;;;;;;5.45;4.82;;;15.20;99.90;;;;;;4980521;28;20035;-95
2021/07/13 03:24:43;;;;;;;5.43;4.65;;;15.20;99.90;;;;;;4982263;28;20038;-95
2021/07/13 03:27:10;;;;;;;8.15;4.68;;;15.10;99.90;;;;;;4982678;28;20076;-96
2021/07/13 03:29:38;;;;;;;6.97;4.60;;;15.10;99.90;;;;;;4983626;28;20061;-95
2021/07/13 03:32:05;;;;;;;6.32;4.43;;;15.10;99.90;;;;;;4980168;28;20026;-95
2021/07/13 03:34:32;;;;;;;8.35;4.57;;;15.20;99.90;;;;;;4979181;28;20026;-94
2021/07/13 03:36:58;;;;;;;10.80;4.55;;;15.20;99.90;;;;;;4980125;28;20038;-95
2021/07/13 03:39:26;;;;;;;6.03;3.83;;;15.20;99.90;;;;;;4979096;28;20538;-96
2021/07/13 03:41:52;;;;;;;7.63;4.32;;;15.10;99.90;;;;;;4982230;28;20041;-95
2021/07/13 03:44:18;;;;;;;10.43;4.55;;;15.10;99.90;;;;;;4985558;28;20027;-95
2021/07/13 03:46:44;;;;;;;5.43;3.70;;;15.10;99.90;;;;;;4983129;28;20483;-96
2021/07/13 03:49:10;;;;;;;4.20;3.53;;;15.10;99.90;;;;;;4984869;28;20050;-95
2021/07/13 03:51:42;;;;;;;4.80;3.03;;;15.10;99.90;;;;;;4989930;28;20057;-96
2021/07/13 03:54:10;;;;;;;3.42;2.70;;;15.10;99.90;;;;;;4987497;28;20019;-96
2021/07/13 03:56:36;;;;;;;7.07;2.40;;;15.00;99.90;;;;;;4986967;28;20049;-96
2021/07/13 03:59:02;;;;;;;3.60;2.13;;;15.00;99.90;;;;;;4983887;28;20045;-96
2021/07/13 04:01:28;;;;;;;3.17;2.20;;;15.00;99.90;;;;;;4981297;28;20062;-95
2021/07/13 04:03:54;;;;;;;2.40;1.90;;;15.00;99.90;;;;;;4980545;28;20101;-95
2021/07/13 04:06:20;;;;;;;1.40;1.30;;;15.00;99.90;;;;;;4977469;28;20065;-93
2021/07/13 04:08:45;;;;;;;1.60;1.23;;;15.00;99.90;;;;;;4978174;28;20050;-94
2021/07/13 04:11:11;;;;;;;1.33;1.20;;;14.90;99.90;;;;;;4979073;28;20026;-95
2021/07/13 04:13:37;;;;;;;1.23;1.10;;;15.00;99.90;;;;;;4986198;28;20464;-96
2021/07/13 04:16:04;;;;;;;1.70;1.15;;;14.90;99.90;;;;;;4981664;28;20031;-94
2021/07/13 04:18:30;;;;;;;0.93;0.93;;;15.00;99.90;;;;;;4983842;28;20395;-96
2021/07/13 04:20:56;;;;;;;0.93;0.93;;;15.00;99.90;;;;;;5000076;28;20022;-95
2021/07/13 04:23:22;;;;;;;1.00;0.90;;;15.00;99.90;;;;;;4979262;28;20050;-95
2021/07/13 04:25:48;;;;;;;2.17;1.10;;;14.90;99.90;;;;;;4981419;28;20392;-96
2021/07/13 04:28:14;;;;;;;0.93;0.82;;;15.00;99.90;;;;;;4988306;28;20094;-95
2021/07/13 04:30:41;;;;;;;0.63;0.63;;;15.00;99.90;;;;;;4976214;28;20510;-94
2021/07/13 04:33:06;;;;;;;0.65;0.60;;;15.00;99.90;;;;;;4976289;28;20077;-94
2021/07/13 04:35:33;;;;;;;0.90;0.77;;;15.00;99.90;;;;;;4982888;28;20042;-96
2021/07/13 04:37:59;;;;;;;1.15;0.65;;;15.00;99.90;;;;;;4981585;28;20026;-95
2021/07/13 04:40:25;;;;;;;0.70;0.65;;;15.00;99.90;;;;;;4987414;28;20031;-95
2021/07/13 04:42:55;;;;;;;0.50;0.50;;;15.00;99.90;;;;;;4999935;28;20030;-95
2021/07/13 04:45:22;;;;;;;1.33;0.60;;;15.00;99.90;;;;;;5017619;28;20050;-95
2021/07/13 04:47:49;;;;;;;4.43;0.98;;;15.00;99.90;;;;;;4983974;28;20022;-95
2021/07/13 04:50:16;;;;;;;0.70;0.70;;;15.00;99.90;;;;;;4985240;28;20026;-96
2021/07/13 04:52:49;;;;;;;0.60;0.60;;;15.10;99.90;;;;;;4997721;28;20101;-96
2021/07/13 04:55:17;;;;;;;2.45;0.73;;;15.10;99.90;;;;;;4995907;28;20023;-95
2021/07/13 04:57:46;;;;;;;0.88;0.80;;;15.10;99.90;;;;;;4978601;28;20042;-96
2021/07/13 05:00:13;;;;;;;0.73;0.70;;;15.10;99.90;;;;;;4976794;28;20053;-96
2021/07/13 05:02:39;;;;;;;1.48;0.95;;;15.10;99.90;;;;;;5065880;23;20018;-96
2021/07/13 05:05:10;;;;;;;3.65;1.40;;;15.10;99.90;;;;;;4977168;28;20026;-96
2021/07/13 05:07:41;;;;;;;2.55;1.02;;;15.20;99.90;;;;;;4963807;28;20117;-94
2021/07/13 05:10:12;;;;;;;3.35;1.02;;;15.20;99.90;;;;;;4963335;28;20058;-96
2021/07/13 05:12:39;;;;;;;1.42;1.20;;;15.20;99.90;;;;;;4963301;28;20035;-95
2021/07/13 05:18:03;;;;;;;1.10;1.00;;;15.20;99.90;;;;;;4977145;28;20071;-95
2021/07/13 06:30:42;;;;;;;4.57;3.58;;;15.50;99.90;;;;;;5178676;23;20059;-96
2021/07/13 06:33:08;;;;;;;6.03;3.38;;;15.50;99.90;;;;;;4980446;28;20102;-96
2021/07/13 06:35:35;;;;;;;5.90;3.42;;;15.50;99.90;;;;;;4976490;28;20030;-96
2021/07/13 06:38:05;;;;;;;5.30;3.60;;;15.50;99.90;;;;;;4969308;28;20033;-96
2021/07/13 06:40:31;;;;;;;5.25;4.00;;;15.50;99.90;;;;;;4965450;28;20022;-96
2021/07/13 06:42:57;;;;;;;10.18;3.55;;;15.50;99.90;;;;;;4961554;28;20067;-96
2021/07/13 06:45:23;;;;;;;6.78;4.20;;;15.50;99.90;;;;;;4967431;28;20050;-95
2021/07/13 06:47:54;;;;;;;5.65;3.67;;;15.50;99.90;;;;;;4961307;28;20560;-94
2021/07/13 06:50:21;;;;;;;8.48;4.57;;;15.60;99.90;;;;;;4960694;28;20023;-95
2021/07/13 06:52:47;;;;;;;6.57;3.45;;;15.60;99.90;;;;;;4958620;28;20058;-95
2021/07/13 06:55:13;;;;;;;5.75;3.80;;;15.50;99.90;;;;;;4962766;28;20030;-95
2021/07/13 06:57:39;;;;;;;4.35;2.97;;;15.60;99.90;;;;;;4957223;28;20053;-93
2021/07/13 07:00:07;;;;;;;5.18;3.25;;;15.70;99.90;;;;;;4958394;28;20110;-94
2021/07/13 07:02:33;;;;;;;6.90;3.25;;;15.70;99.90;;;;;;4957985;28;20161;-95
2021/07/13 07:04:58;;;;;;;7.55;3.70;;;15.90;99.90;;;;;;4958804;28;20054;-94
2021/07/13 07:07:24;;;;;;;5.60;3.63;;;16.00;99.90;;;;;;4957024;28;20072;-94
2021/07/13 07:09:50;;;;;;;6.80;3.47;;;16.10;99.90;;;;;;4956876;28;20030;-94
2021/07/13 07:12:25;;;;;;;5.13;3.83;;;16.20;99.90;;;;;;4960216;28;20036;-96
2021/07/13 07:14:53;;;;;;;6.32;3.55;;;16.40;99.90;;;;;;4970790;28;20022;-96
2021/07/13 07:20:00;;;;;;;6.15;3.75;;;16.40;99.90;;;;;;5938406;23;20058;-94
2021/07/13 07:22:27;;;;;;;13.45;4.40;;;16.30;99.90;;;;;;4947901;28;20042;-94
2021/07/13 07:24:52;;;;;;;9.88;4.70;;;16.30;99.90;;;;;;4955530;28;20118;-93
2021/07/13 07:27:20;;;;;;;6.90;4.00;;;16.30;99.90;;;;;;4958476;28;20078;-94
2021/07/13 07:29:46;;;;;;;6.72;4.10;;;16.30;99.90;;;;;;4958454;28;20023;-94
2021/07/13 07:32:11;;;;;;;7.15;3.88;;;16.20;99.90;;;;;;4955380;28;20035;-93
2021/07/13 07:34:37;;;;;;;7.03;3.22;;;16.20;99.90;;;;;;4956234;28;20022;-93
2021/07/13 07:37:03;;;;;;;7.05;3.17;;;16.20;99.90;;;;;;4946572;28;20027;-93
2021/07/13 07:39:29;;;;;;;7.78;3.72;;;16.20;99.90;;;;;;4948782;28;20027;-93
2021/07/13 07:42:00;;;;;;;3.75;3.05;;;16.10;99.90;;;;;;4955389;28;20038;-95
2021/07/13 07:44:26;;;;;;;5.13;2.63;;;16.20;99.90;;;;;;4958401;28;20019;-95
2021/07/13 07:46:52;;;;;;;5.18;2.95;;;16.20;99.90;;;;;;4949807;28;20122;-90
2021/07/13 07:49:17;;;;;;;7.20;2.60;;;16.10;99.90;;;;;;4947772;29;20027;-96
2021/07/13 07:51:43;;;;;;;3.80;2.67;;;16.10;99.90;;;;;;4954559;29;20031;-94
2021/07/13 07:54:10;;;;;;;6.10;2.75;;;16.10;99.90;;;;;;4951293;29;20027;-96
2021/07/13 07:56:36;;;;;;;8.15;3.40;;;16.10;99.90;;;;;;4948992;29;20043;-94
2021/07/13 07:59:04;;;;;;;7.63;3.60;;;16.00;99.90;;;;;;4946432;29;20031;-96
2021/07/13 08:01:30;;;;;;;10.82;4.15;;;16.10;99.90;;;;;;4949333;29;20027;-96
2021/07/13 08:03:56;;;;;;;10.45;4.80;;;16.10;99.90;;;;;;4950229;29;20380;-95
2021/07/13 08:06:22;;;;;;;7.95;4.00;;;16.00;99.90;;;;;;4948783;29;20031;-95
2021/07/13 08:08:57;;;;;;;7.28;3.40;;;16.10;99.90;;;;;;4952510;29;20023;-95
2021/07/13 09:12:21;;;;;;;2.53;1.90;;;18.80;99.90;;;;;;5005102;28;20591;-96
2021/07/13 09:15:08;;;;;;;2.40;1.80;;;18.80;99.90;;;;;;5022070;23;20314;-95
2021/07/13 09:17:47;;;;;;;2.00;1.80;;;18.90;99.90;;;;;;4971672;28;20039;-96
2021/07/13 09:20:31;;;;;;;2.10;1.90;;;18.90;99.90;;;;;;4947970;29;20019;-96
2021/07/13 09:23:06;;;;;;;3.22;2.20;;;18.80;99.90;;;;;;4944842;29;20504;-96
2021/07/13 09:25:44;;;;;;;4.80;1.90;;;18.80;99.90;;;;;;4948351;29;20027;-96
2021/07/13 09:28:24;;;;;;;2.25;2.08;;;18.80;99.90;;;;;;4965810;29;20039;-95
2021/07/13 09:30:51;;;;;;;5.68;2.58;;;18.80;99.90;;;;;;4954791;28;20031;-96
2021/07/13 09:33:22;;;;;;;4.65;2.13;;;18.80;99.90;;;;;;4957503;29;20494;-96
2021/07/13 09:36:09;;;;;;;4.53;2.30;;;18.80;99.90;;;;;;4955562;29;20038;-96
2021/07/13 09:42:09;;;;;;;4.40;1.80;;;18.80;99.90;;;;;;4937882;29;20131;-95
2021/07/13 09:44:54;;;;;;;4.00;2.10;;;19.00;99.90;;;;;;4936057;29;20055;-95
2021/07/13 09:47:46;;;;;;;5.90;2.40;;;19.10;99.90;;;;;;4953171;29;20063;-95
2021/07/13 11:59:12;;;;;;;1.98;1.60;;;20.10;99.90;;;;;;4975401;28;20085;-94
2021/07/13 12:09:09;;;;;;;1.90;1.70;;;20.20;99.90;;;;;;4865032;29;20455;-95
2021/07/13 12:11:40;;;;;;;2.03;1.75;;;20.30;99.90;;;;;;4862970;29;20041;-92
2021/07/13 12:14:09;;;;;;;1.65;1.50;;;20.40;99.90;;;;;;4862644;29;20060;-91
2021/07/13 12:16:36;;;;;;;5.53;1.70;;;20.50;99.90;;;;;;4865952;29;20036;-91
2021/07/13 12:19:23;;;;;;;2.08;1.58;;;20.70;99.90;;;;;;4863412;29;20655;-92
2021/07/13 12:21:55;;;;;;;2.28;1.63;;;21.00;99.90;;;;;;4863094;29;20029;-91
2021/07/13 12:24:37;;;;;;;2.42;1.60;;;21.30;99.90;;;;;;4862679;29;20164;-91
2021/07/13 12:27:08;;;;;;;2.78;1.98;;;21.50;99.00;;;;;;4862509;29;20044;-92
2021/07/13 12:29:39;;;;;;;3.50;1.73;;;21.60;98.20;;;;;;4862709;29;20025;-91
2021/07/13 12:32:17;;;;;;;1.90;1.63;;;21.80;98.20;;;;;;4862408;29;20053;-92
2021/07/13 12:34:44;;;;;;;3.15;1.85;;;22.10;98.10;;;;;;4863546;29;20077;-94
2021/07/13 12:37:19;;;;;;;4.95;1.50;;;22.50;97.30;;;;;;4862496;29;20064;-93
2021/07/13 12:39:50;;;;;;;2.97;1.83;;;22.70;96.50;;;;;;4862952;29;20083;-92
2021/07/13 12:42:23;;;;;;;4.15;1.60;;;23.00;95.60;;;;;;4861627;29;20451;-91
2021/07/13 12:44:51;;;;;;;2.80;1.90;;;23.30;95.00;;;;;;4930080;28;20102;-91
2021/07/13 12:47:30;;;;;;;1.20;1.10;;;23.50;94.40;;;;;;4957718;28;20330;-91
2021/07/13 12:50:17;;;;;;;1.77;1.67;;;23.40;93.40;;;;;;4957088;28;20039;-92
2021/07/13 12:52:44;;;;;;;3.22;1.30;;;23.50;93.10;;;;;;4957505;28;20047;-93
2021/07/13 12:55:25;;;;;;;2.42;1.15;;;23.60;92.80;;;;;;4957255;28;20035;-92
2021/07/13 12:57:50;;;;;;;;;;;23.60;91.90;;;;;;4957522;28;20031;-91
2021/07/13 13:00:26;;;;;;;2.25;1.42;;;23.60;91.50;;;;;;4960510;28;19910;-92
2021/07/13 13:03:03;;;;;;;1.60;1.38;;;23.70;91.20;;;;;;4961141;28;20034;-92
2021/07/13 13:05:30;;;;;;;2.15;1.50;;;23.80;90.40;;;;;;4961094;28;20042;-92
2021/07/13 13:08:01;;;;;;;1.90;1.20;;;23.80;90.20;;;;;;4960497;28;20022;-93
2021/07/13 13:10:28;;;;;;;1.75;1.08;;;23.70;89.70;;;;;;4960071;28;20396;-91
2021/07/13 13:12:53;;;;;;;1.63;1.10;;;23.70;89.40;;;;;;4959569;28;20023;-92
2021/07/13 13:15:24;;;;;;;4.93;1.48;;;23.60;88.80;;;;;;4957224;28;20377;-92
2021/07/13 13:17:50;;;;;;;1.33;1.23;;;23.60;88.70;;;;;;4960093;28;20019;-92
2021/07/13 13:20:16;;;;;;;2.47;1.50;;;23.40;88.50;;;;;;4960303;28;20027;-92
2021/07/13 13:22:50;;;;;;;7.78;1.85;;;23.40;88.50;;;;;;4960118;28;20097;-92
2021/07/13 13:25:16;;;;;;;1.38;1.20;;;23.40;88.60;;;;;;4960002;28;20034;-93
2021/07/13 13:27:45;;;;;;;2.28;1.40;;;23.60;88.70;;;;;;4949748;28;20042;-93
2021/07/13 13:30:13;;;;;;;4.45;1.70;;;23.70;87.90;;;;;;4957246;29;20485;-94
2021/07/13 13:32:40;;;;;;;4.25;1.27;;;23.90;87.40;;;;;;4941437;29;20035;-93
2021/07/13 13:35:09;;;;;;;9.35;2.72;;;24.00;85.60;;;;;;4941112;29;20027;-94
2021/07/13 13:37:47;;;;;;;1.92;1.52;;;24.00;85.40;;;;;;4941545;29;20031;-94
2021/07/13 13:40:14;;;;;;;3.50;1.20;;;24.10;85.40;;;;;;4941185;29;20023;-93
2021/07/13 13:42:41;;;;;;;3.45;1.20;;;24.30;84.60;;;;;;4941017;29;20050;-93
2021/07/13 13:45:07;;;;;;;3.38;1.30;;;24.30;83.50;;;;;;4940905;29;20374;-93
2021/07/13 13:47:33;;;;;;;1.30;1.20;;;24.10;82.80;;;;;;4940898;29;20039;-94
2021/07/13 13:49:59;;;;;;;1.60;1.15;;;24.00;83.20;;;;;;4956654;28;20118;-94
2021/07/13 13:52:28;;;;;;;1.40;1.30;;;23.90;83.70;;;;;;4956555;28;20051;-93
2021/07/13 13:54:53;;;;;;;2.28;0.90;;;23.80;84.40;;;;;;4956762;28;20028;-93
2021/07/13 13:57:22;;;;;;;1.63;1.30;;;23.70;84.10;;;;;;4956904;29;20031;-93
2021/07/13 13:59:48;;;;;;;1.13;1.02;;;23.60;84.50;;;;;;4956608;28;20027;-93
2021/07/13 14:02:13;;;;;;;1.30;1.20;;;23.60;85.10;;;;;;4956666;28;20034;-93
2021/07/13 14:04:39;;;;;;;1.20;1.10;;;23.60;85.50;;;;;;4953464;28;20030;-93
2021/07/13 14:07:05;;;;;;;1.27;1.10;;;23.70;85.20;;;;;;4956839;29;20814;-93
2021/07/13 14:09:31;;;;;;;2.88;1.50;;;23.90;84.60;;;;;;4961642;28;20031;-94
2021/07/13 14:11:58;;;;;;;1.30;1.10;;;24.20;84.30;;;;;;4956729;28;20031;-92
2021/07/13 14:14:23;;;;;;;1.92;1.10;;;24.50;83.30;;;;;;4959092;28;20094;-94
2021/07/13 14:16:49;;;;;;;1.35;1.25;;;24.60;82.10;;;;;;4956595;28;20469;-93
2021/07/13 14:19:15;;;;;;;1.10;1.05;;;24.60;80.80;;;;;;4956974;29;20041;-93
2021/07/13 14:21:42;;;;;;;1.30;1.20;;;24.50;80.60;;;;;;4956476;28;20121;-93
2021/07/13 14:24:08;;;;;;;2.97;1.50;;;24.50;81.10;;;;;;4956240;28;20042;-93
2021/07/13 14:26:34;;;;;;;1.55;1.27;;;24.40;81.80;;;;;;4956681;28;20023;-93
2021/07/13 14:29:00;;;;;;;3.28;1.63;;;24.20;82.20;;;;;;4956561;28;20039;-93
2021/07/13 14:31:25;;;;;;;3.33;1.52;;;24.20;82.80;;;;;;4956360;29;20026;-94
2021/07/13 14:33:52;;;;;;;4.93;1.73;;;24.30;83.10;;;;;;4956347;28;20031;-94
2021/07/13 14:36:18;;;;;;;1.95;1.60;;;24.40;82.80;;;;;;4956387;29;20170;-94
2021/07/13 14:38:44;;;;;;;1.98;1.33;;;24.60;82.20;;;;;;4956225;29;20461;-94
2021/07/13 14:41:09;;;;;;;3.58;2.47;;;24.80;80.90;;;;;;4953485;29;20074;-93
2021/07/13 14:43:35;;;;;;;1.83;1.20;;;25.00;80.10;;;;;;4956535;29;20125;-93
2021/07/13 14:46:01;;;;;;;1.65;1.38;;;25.20;79.50;;;;;;4957684;28;20028;-95
2021/07/13 14:48:27;;;;;;;2.28;1.70;;;25.30;78.50;;;;;;4956166;29;20433;-93
2021/07/13 14:50:53;;;;;;;1.60;1.50;;;25.60;77.70;;;;;;4955057;28;20777;-94
2021/07/13 14:53:21;;;;;;;1.95;1.30;;;25.70;77.00;;;;;;4955874;28;20031;-94
2021/07/13 14:55:52;;;;;;;2.13;1.40;;;25.70;76.50;;;;;;4955529;28;20031;-93
2021/07/13 14:58:18;;;;;;;3.42;1.30;;;25.70;76.10;;;;;;4956235;28;20023;-94
2021/07/13 15:00:48;;;;;;;2.33;1.50;;;25.50;75.90;;;;;;4956196;28;20090;-94
2021/07/13 15:03:15;;;;;;;1.60;1.30;;;25.20;76.10;;;;;;4955669;29;20043;-94
2021/07/13 15:05:41;;;;;;;1.40;1.30;;;25.10;76.60;;;;;;4955955;28;20110;-94
2021/07/13 15:08:07;;;;;;;3.17;1.73;;;25.00;77.30;;;;;;4955534;29;20035;-95
2021/07/13 15:10:34;;;;;;;3.17;1.48;;;24.80;77.30;;;;;;4955425;28;20027;-92
2021/07/13 15:13:00;;;;;;;1.40;1.30;;;24.70;77.20;;;;;;4955637;28;20062;-95
2021/07/13 15:15:26;;;;;;;1.58;1.20;;;24.50;77.30;;;;;;4955344;28;20024;-94
2021/07/13 15:18:00;;;;;;;2.38;1.40;;;24.40;77.80;;;;;;4955922;28;20508;-93
2021/07/13 15:20:26;;;;;;;1.80;1.42;;;24.30;78.40;;;;;;4956039;28;20032;-93
2021/07/13 15:22:53;;;;;;;1.50;1.40;;;24.20;78.90;;;;;;4956508;28;20039;-94
2021/07/13 15:34:38;;;;;;;2.15;1.90;;;24.80;79.00;;;;;;5737919;23;20059;-92
2021/07/13 15:37:04;;;;;;;5.30;2.03;;;25.10;78.20;;;;;;4958191;28;20440;-93
2021/07/13 15:39:31;;;;;;;3.35;2.05;;;25.40;77.90;;;;;;4958275;28;20034;-91
2021/07/13 15:42:04;;;;;;;3.10;2.10;;;25.70;77.40;;;;;;4958411;28;20026;-92
2021/07/13 15:44:30;;;;;;;5.28;2.20;;;25.80;76.80;;;;;;4958395;28;20061;-93
2021/07/13 15:46:56;;;;;;;3.88;1.80;;;25.70;76.50;;;;;;4944441;29;20110;-91
2021/07/13 15:49:22;;;;;;;1.77;1.67;;;25.50;76.40;;;;;;4939050;29;20047;-91
2021/07/13 15:51:48;;;;;;;2.75;2.00;;;25.40;76.60;;;;;;4939062;29;20042;-92
2021/07/13 15:54:13;;;;;;;3.08;2.15;;;25.30;76.90;;;;;;4938937;29;20035;-93
2021/07/13 15:56:39;;;;;;;4.22;2.20;;;25.20;77.30;;;;;;4944609;28;20027;-91
2021/07/13 15:59:05;;;;;;;3.15;1.73;;;25.00;77.60;;;;;;4952686;28;20074;-92
2021/07/13 16:01:30;;;;;;;2.88;2.20;;;24.80;78.10;;;;;;4958425;28;20026;-93
2021/07/13 16:03:56;;;;;;;2.60;1.92;;;24.70;78.70;;;;;;4958405;28;20039;-94
2021/07/13 16:06:22;;;;;;;3.92;1.90;;;24.60;79.30;;;;;;4958386;28;20037;-92
2021/07/13 16:08:50;;;;;;;3.78;2.00;;;24.50;79.80;;;;;;4958448;28;20034;-92
2021/07/13 16:11:15;;;;;;;3.25;1.65;;;24.30;80.30;;;;;;4958185;28;20078;-91
2021/07/13 16:13:41;;;;;;;1.95;1.83;;;24.10;80.70;;;;;;4964904;28;20035;-91
2021/07/13 16:16:07;;;;;;;3.10;2.10;;;24.00;81.30;;;;;;4959218;28;20400;-92
2021/07/13 16:18:33;;;;;;;2.20;2.00;;;23.90;81.80;;;;;;4951491;28;20085;-92
2021/07/13 16:20:59;;;;;;;4.05;2.17;;;23.90;82.20;;;;;;4948012;28;20030;-92
2021/07/13 16:23:27;;;;;;;2.20;1.95;;;23.70;82.20;;;;;;4945697;28;20035;-91
2021/07/13 16:25:54;;;;;;;5.70;2.38;;;23.70;82.90;;;;;;4948383;28;20026;-92
2021/07/13 16:28:20;;;;;;;2.13;1.80;;;23.70;83.10;;;;;;4948259;28;20025;-92
2021/07/13 16:30:45;;;;;;;3.72;1.98;;;23.60;83.20;;;;;;4945599;28;20031;-93
2021/07/13 16:33:11;;;;;;;3.08;1.63;;;23.60;83.40;;;;;;4947461;28;20030;-91
2021/07/13 16:35:37;;;;;;;8.10;2.28;;;23.50;83.90;;;;;;4960552;28;20051;-92
2021/07/13 16:38:03;;;;;;;3.58;1.90;;;23.50;84.30;;;;;;4968771;28;20041;-91
2021/07/13 16:40:31;;;;;;;5.25;1.90;;;23.40;84.30;;;;;;4960370;28;20031;-91
2021/07/13 16:42:59;;;;;;;3.95;1.90;;;23.30;84.40;;;;;;4974202;28;20034;-91
2021/07/13 16:45:25;;;;;;;4.82;1.90;;;23.30;84.60;;;;;;4977414;28;20039;-91
2021/07/13 16:48:01;;;;;;;3.92;2.50;;;23.40;84.50;;;;;;4960738;28;20027;-94
2021/07/13 16:50:35;;;;;;;2.28;1.92;;;23.40;84.50;;;;;;4975930;28;20061;-91
2021/07/13 16:53:03;;;;;;;3.42;2.30;;;23.40;84.30;;;;;;4977520;28;20054;-95
2021/07/13 16:55:37;;;;;;;3.42;2.03;;;23.40;84.20;;;;;;4979576;28;20027;-96
2021/07/13 16:58:04;;;;;;;3.55;2.10;;;23.40;84.20;;;;;;4978865;28;20518;-94
2021/07/13 17:00:32;;;;;;;1.85;1.63;;;23.30;84.20;;;;;;4977539;28;20061;-94
2021/07/13 17:02:58;;;;;;;3.60;2.08;;;23.30;84.40;;;;;;4977349;28;20039;-95
2021/07/13 17:05:27;;;;;;;2.95;2.00;;;23.20;84.50;;;;;;4978149;28;20058;-94
2021/07/13 17:07:58;;;;;;;2.60;1.83;;;23.20;84.50;;;;;;4978046;28;20031;-95
2021/07/13 17:10:34;;;;;;;6.45;1.92;;;23.20;84.70;;;;;;4977727;28;20038;-96
2021/07/13 17:13:03;;;;;;;3.28;2.33;;;23.10;85.00;;;;;;4961556;28;20097;-94
2021/07/13 17:15:38;;;;;;;3.80;2.28;;;23.10;85.30;;;;;;4967368;28;20388;-95
2021/07/13 17:21:28;;;;;;;3.15;2.10;;;23.00;85.30;;;;;;4957774;28;20063;-92
2021/07/13 17:23:54;;;;;;;2.65;1.90;;;23.00;85.40;;;;;;4961473;28;20082;-94
2021/07/13 17:26:19;;;;;;;3.75;2.10;;;22.90;85.40;;;;;;4968018;28;20030;-93
2021/07/13 17:28:45;;;;;;;2.47;1.70;;;22.80;85.50;;;;;;4984508;28;20041;-94
2021/07/13 17:31:11;;;;;;;5.38;2.13;;;22.80;85.90;;;;;;4979533;28;20030;-95
2021/07/13 17:33:37;;;;;;;3.17;2.00;;;22.70;86.50;;;;;;4973867;28;20046;-92
2021/07/13 17:36:06;;;;;;;4.88;2.25;;;22.70;86.80;;;;;;4968873;28;20067;-94
2021/07/13 17:38:33;;;;;;;3.47;1.75;;;22.70;86.60;;;;;;4965073;28;20434;-94
2021/07/13 17:40:59;;;;;;;2.42;1.90;;;22.60;86.40;;;;;;4961675;28;20024;-94
2021/07/13 17:43:24;;;;;;;3.47;1.70;;;22.50;86.80;;;;;;4966029;28;20043;-95
2021/07/13 17:45:50;;;;;;;3.80;1.80;;;22.50;87.40;;;;;;4963761;28;20023;-94
2021/07/13 17:48:16;;;;;;;6.78;1.73;;;22.40;87.50;;;;;;4967121;28;20065;-95